createdAt,value
2023-01-11T00:00:08.074Z,6.45
2023-01-11T00:01:08.083Z,6.42
2023-01-11T00:02:08.066Z,6.44
2023-01-11T00:03:08.054Z,6.44
2023-01-11T00:04:08.025Z,6.45
2023-01-11T00:05:08.011Z,6.45
2023-01-11T00:06:08.070Z,6.45
2023-01-11T00:07:07.981Z,6.44
2023-01-11T00:08:07.986Z,6.42
2023-01-11T00:09:07.974Z,6.41
2023-01-11T00:10:07.964Z,6.39
2023-01-11T00:11:07.945Z,6.39
2023-01-11T00:12:07.917Z,6.36
2023-01-11T00:13:07.913Z,6.31
2023-01-11T00:14:07.889Z,6.30
2023-01-11T00:15:07.883Z,6.30
2023-01-11T00:16:07.991Z,6.33
2023-01-11T00:17:07.860Z,6.28
2023-01-11T00:18:07.844Z,6.33
2023-01-11T00:19:07.832Z,6.30
2023-01-11T00:20:07.821Z,6.28
2023-01-11T00:21:07.824Z,6.30
2023-01-11T00:22:07.802Z,6.30
2023-01-11T00:23:07.790Z,6.31
2023-01-11T00:24:07.782Z,6.31
2023-01-11T00:25:07.746Z,6.36
2023-01-11T00:26:07.774Z,6.33
2023-01-11T00:27:07.727Z,6.38
2023-01-11T00:28:07.744Z,6.38
2023-01-11T00:29:07.703Z,6.38
2023-01-11T00:30:07.697Z,6.42
2023-01-11T00:31:07.714Z,6.41
2023-01-11T00:32:07.664Z,6.44
2023-01-11T00:33:07.648Z,6.45
2023-01-11T00:34:07.634Z,6.45
2023-01-11T00:35:07.624Z,6.49
2023-01-11T00:36:07.643Z,6.48
2023-01-11T00:37:07.601Z,6.48
2023-01-11T00:38:07.589Z,6.48
2023-01-11T00:39:07.585Z,6.51
2023-01-11T00:40:07.559Z,6.51
2023-01-11T00:41:07.560Z,6.52
2023-01-11T00:42:07.575Z,6.57
2023-01-11T00:43:07.519Z,6.54
2023-01-11T00:44:07.508Z,6.52
2023-01-11T00:45:07.502Z,6.56
2023-01-11T00:46:07.507Z,6.54
2023-01-11T00:47:07.461Z,6.51
2023-01-11T00:48:07.457Z,6.51
2023-01-11T00:49:07.441Z,6.54
2023-01-11T00:50:07.434Z,6.56
2023-01-11T00:51:07.433Z,6.54
2023-01-11T00:52:07.410Z,6.52
2023-01-11T00:53:07.385Z,6.54
2023-01-11T00:54:07.381Z,6.49
2023-01-11T00:55:07.398Z,6.49
2023-01-11T00:56:07.375Z,6.52
2023-01-11T00:57:07.375Z,6.51
2023-01-11T00:58:07.353Z,6.52
2023-01-11T00:59:07.317Z,6.51
2023-01-11T01:00:07.343Z,6.54
2023-01-11T01:01:07.333Z,6.54
2023-01-11T01:02:07.276Z,6.56
2023-01-11T01:03:07.263Z,6.52
2023-01-11T01:04:07.281Z,6.49
2023-01-11T01:05:07.257Z,6.54
2023-01-11T01:06:07.231Z,6.57
2023-01-11T01:07:07.220Z,6.52
2023-01-11T01:08:07.198Z,6.52
2023-01-11T01:09:07.184Z,6.56
2023-01-11T01:10:07.188Z,6.54
2023-01-11T01:11:07.164Z,6.54
2023-01-11T01:12:07.172Z,6.57
2023-01-11T01:13:07.151Z,6.56
2023-01-11T01:14:07.142Z,6.62
2023-01-11T01:15:07.108Z,6.60
2023-01-11T01:16:07.156Z,6.63
2023-01-11T01:17:07.099Z,6.63
2023-01-11T01:18:07.078Z,6.66
2023-01-11T01:19:07.055Z,6.64
2023-01-11T01:20:07.045Z,6.69
2023-01-11T01:21:07.031Z,6.67
2023-01-11T01:22:07.036Z,6.69
2023-01-11T01:23:07.005Z,6.74
2023-01-11T01:24:06.992Z,6.78
2023-01-11T01:25:06.994Z,6.72
2023-01-11T01:26:06.967Z,6.75
2023-01-11T01:27:06.970Z,6.79
2023-01-11T01:28:06.951Z,6.87
2023-01-11T01:29:06.929Z,6.89
2023-01-11T01:30:06.945Z,6.85
2023-01-11T01:31:06.948Z,6.89
2023-01-11T01:32:06.905Z,6.95
2023-01-11T01:33:06.875Z,6.95
2023-01-11T01:34:06.867Z,6.96
2023-01-11T01:35:06.854Z,6.99
2023-01-11T01:36:06.839Z,6.97
2023-01-11T01:37:06.857Z,6.97
2023-01-11T01:38:06.816Z,7.00
2023-01-11T01:39:06.800Z,7.00
2023-01-11T01:40:06.826Z,7.02
2023-01-11T01:41:06.772Z,7.06
2023-01-11T01:42:06.798Z,7.03
2023-01-11T01:43:06.750Z,7.07
2023-01-11T01:44:06.739Z,7.10
2023-01-11T01:45:06.763Z,7.13
2023-01-11T01:46:06.765Z,7.13
2023-01-11T01:47:06.712Z,7.15
2023-01-11T01:48:06.691Z,7.13
2023-01-11T01:49:06.672Z,7.11
2023-01-11T01:50:06.657Z,7.11
2023-01-11T01:51:06.655Z,7.14
2023-01-11T01:52:06.647Z,7.10
2023-01-11T01:53:06.615Z,7.11
2023-01-11T01:54:06.604Z,7.10
2023-01-11T01:55:06.590Z,7.07
2023-01-11T01:56:06.583Z,7.07
2023-01-11T01:57:06.585Z,7.06
2023-01-11T01:58:06.570Z,7.07
2023-01-11T01:59:06.542Z,7.02
2023-01-11T02:00:06.530Z,7.05
2023-01-11T02:01:06.523Z,6.97
2023-01-11T02:02:06.543Z,7.02
2023-01-11T02:03:06.574Z,6.97
2023-01-11T02:04:06.489Z,6.97
2023-01-11T02:05:06.466Z,7.00
2023-01-11T02:06:06.463Z,7.00
2023-01-11T02:07:06.456Z,6.96
2023-01-11T02:08:06.430Z,6.96
2023-01-11T02:09:06.417Z,6.97
2023-01-11T02:10:06.405Z,6.99
2023-01-11T02:11:06.388Z,6.92
2023-01-11T02:12:06.407Z,6.95
2023-01-11T02:13:06.368Z,6.93
2023-01-11T02:14:06.357Z,6.93
2023-01-11T02:15:06.345Z,6.92
2023-01-11T02:16:06.341Z,6.97
2023-01-11T02:17:06.332Z,6.96
2023-01-11T02:18:06.322Z,6.96
2023-01-11T02:19:06.303Z,6.96
2023-01-11T02:20:06.291Z,6.95
2023-01-11T02:21:06.268Z,6.97
2023-01-11T02:22:06.249Z,7.00
2023-01-11T02:23:06.263Z,7.02
2023-01-11T02:24:06.238Z,6.99
2023-01-11T02:25:06.217Z,6.99
2023-01-11T02:26:06.193Z,7.10
2023-01-11T02:27:06.185Z,7.06
2023-01-11T02:28:06.186Z,7.07
2023-01-11T02:29:06.158Z,7.15
2023-01-11T02:30:06.146Z,7.17
2023-01-11T02:31:06.239Z,7.18
2023-01-11T02:32:06.125Z,7.18
2023-01-11T02:33:06.124Z,7.24
2023-01-11T02:34:06.118Z,7.21
2023-01-11T02:35:06.084Z,7.28
2023-01-11T02:36:06.081Z,7.32
2023-01-11T02:37:06.060Z,7.31
2023-01-11T02:38:06.083Z,7.39
2023-01-11T02:39:06.029Z,7.35
2023-01-11T02:40:06.019Z,7.38
2023-01-11T02:41:06.019Z,7.38
2023-01-11T02:42:05.989Z,7.43
2023-01-11T02:43:05.995Z,7.42
2023-01-11T02:44:05.971Z,7.45
2023-01-11T02:45:05.957Z,7.42
2023-01-11T02:46:06.094Z,7.48
2023-01-11T02:47:05.935Z,7.45
2023-01-11T02:48:05.931Z,7.51
2023-01-11T02:49:05.920Z,7.48
2023-01-11T02:50:05.918Z,7.45
2023-01-11T02:51:05.936Z,7.43
2023-01-11T02:52:05.871Z,7.50
2023-01-11T02:53:05.879Z,7.48
2023-01-11T02:54:05.846Z,7.48
2023-01-11T02:55:05.828Z,7.50
2023-01-11T02:56:05.819Z,7.53
2023-01-11T02:57:05.798Z,7.50
2023-01-11T02:58:05.817Z,7.50
2023-01-11T02:59:05.774Z,7.50
2023-01-11T03:00:05.765Z,7.47
2023-01-11T03:01:05.753Z,7.50
2023-01-11T03:02:05.861Z,7.50
2023-01-11T03:03:05.801Z,7.45
2023-01-11T03:04:05.707Z,7.43
2023-01-11T03:05:05.689Z,7.45
2023-01-11T03:06:05.709Z,7.43
2023-01-11T03:07:05.671Z,7.40
2023-01-11T03:08:05.686Z,7.39
2023-01-11T03:09:05.643Z,7.39
2023-01-11T03:10:05.628Z,7.38
2023-01-11T03:11:05.614Z,7.33
2023-01-11T03:12:05.620Z,7.35
2023-01-11T03:13:05.618Z,7.36
2023-01-11T03:14:05.577Z,7.45
2023-01-11T03:15:05.571Z,7.45
2023-01-11T03:16:05.619Z,7.47
2023-01-11T03:17:05.539Z,7.47
2023-01-11T03:18:05.531Z,7.48
2023-01-11T03:19:05.528Z,7.50
2023-01-11T03:20:05.514Z,7.57
2023-01-11T03:21:05.491Z,7.56
2023-01-11T03:22:05.506Z,7.61
2023-01-11T03:23:05.462Z,7.67
2023-01-11T03:24:05.472Z,7.69
2023-01-11T03:25:05.434Z,7.73
2023-01-11T03:26:05.425Z,7.73
2023-01-11T03:27:05.417Z,7.75
2023-01-11T03:28:05.394Z,7.75
2023-01-11T03:29:05.395Z,7.77
2023-01-11T03:30:05.375Z,7.82
2023-01-11T03:31:05.397Z,7.82
2023-01-11T03:32:05.347Z,7.80
2023-01-11T03:33:05.332Z,7.82
2023-01-11T03:34:05.332Z,7.88
2023-01-11T03:35:05.305Z,7.88
2023-01-11T03:36:05.307Z,7.94
2023-01-11T03:37:05.280Z,7.93
2023-01-11T03:38:05.285Z,7.97
2023-01-11T03:39:05.281Z,7.94
2023-01-11T03:40:05.243Z,7.97
2023-01-11T03:41:05.240Z,8.00
2023-01-11T03:42:05.238Z,8.00
2023-01-11T03:43:05.212Z,8.01
2023-01-11T03:44:05.209Z,8.05
2023-01-11T03:45:05.179Z,8.12
2023-01-11T03:46:05.189Z,8.09
2023-01-11T03:47:05.236Z,8.12
2023-01-11T03:48:05.144Z,8.16
2023-01-11T03:49:05.140Z,8.15
2023-01-11T03:50:05.131Z,8.16
2023-01-11T03:51:05.107Z,8.20
2023-01-11T03:52:05.090Z,8.18
2023-01-11T03:53:05.067Z,8.23
2023-01-11T03:54:05.114Z,8.23
2023-01-11T03:55:05.071Z,8.24
2023-01-11T03:56:05.032Z,8.28
2023-01-11T03:57:05.032Z,8.19
2023-01-11T03:58:05.021Z,8.19
2023-01-11T03:59:05.031Z,8.23
2023-01-11T04:00:04.986Z,8.24
2023-01-11T04:01:05.055Z,8.27
2023-01-11T04:02:04.955Z,8.27
2023-01-11T04:03:04.958Z,8.28
2023-01-11T04:04:04.985Z,8.36
2023-01-11T04:05:04.920Z,8.37
2023-01-11T04:06:04.906Z,8.36
2023-01-11T04:07:04.893Z,8.37
2023-01-11T04:08:04.897Z,8.36
2023-01-11T04:09:04.879Z,8.37
2023-01-11T04:10:04.989Z,8.45
2023-01-11T04:11:04.849Z,8.49
2023-01-11T04:12:04.826Z,8.45
2023-01-11T04:13:04.809Z,8.48
2023-01-11T04:14:04.821Z,8.55
2023-01-11T04:15:04.788Z,8.52
2023-01-11T04:16:04.810Z,8.56
2023-01-11T04:17:04.772Z,8.53
2023-01-11T04:18:04.757Z,8.60
2023-01-11T04:19:04.776Z,8.53
2023-01-11T04:20:04.722Z,8.60
2023-01-11T04:21:04.710Z,8.56
2023-01-11T04:22:04.706Z,8.58
2023-01-11T04:23:04.688Z,8.55
2023-01-11T04:24:04.675Z,8.61
2023-01-11T04:25:04.671Z,8.60
2023-01-11T04:26:04.665Z,8.61
2023-01-11T04:27:04.636Z,8.64
2023-01-11T04:28:04.619Z,8.63
2023-01-11T04:29:04.602Z,8.69
2023-01-11T04:30:04.611Z,8.66
2023-01-11T04:31:04.574Z,8.69
2023-01-11T04:32:04.565Z,8.69
2023-01-11T04:33:04.552Z,8.73
2023-01-11T04:34:04.533Z,8.70
2023-01-11T04:35:04.542Z,8.78
2023-01-11T04:36:04.529Z,8.78
2023-01-11T04:37:04.498Z,8.70
2023-01-11T04:38:04.482Z,8.74
2023-01-11T04:39:04.482Z,8.78
2023-01-11T04:40:04.474Z,8.78
2023-01-11T04:41:04.450Z,8.76
2023-01-11T04:42:04.470Z,8.76
2023-01-11T04:43:04.424Z,8.78
2023-01-11T04:44:04.409Z,8.76
2023-01-11T04:45:04.418Z,8.74
2023-01-11T04:46:04.434Z,8.76
2023-01-11T04:47:04.382Z,8.76
2023-01-11T04:48:04.357Z,8.74
2023-01-11T04:49:04.353Z,8.78
2023-01-11T04:50:04.428Z,8.74
2023-01-11T04:51:04.335Z,8.76
2023-01-11T04:52:04.307Z,8.71
2023-01-11T04:53:04.298Z,8.73
2023-01-11T04:54:04.283Z,8.81
2023-01-11T04:55:04.281Z,8.81
2023-01-11T04:56:04.251Z,8.84
2023-01-11T04:57:04.239Z,8.79
2023-01-11T04:58:04.278Z,8.81
2023-01-11T04:59:04.217Z,8.84
2023-01-11T05:00:04.212Z,8.82
2023-01-11T05:01:04.232Z,8.76
2023-01-11T05:02:04.183Z,8.78
2023-01-11T05:03:04.164Z,8.74
2023-01-11T05:04:04.215Z,8.81
2023-01-11T05:05:04.151Z,8.71
2023-01-11T05:06:04.128Z,8.76
2023-01-11T05:07:04.112Z,8.78
2023-01-11T05:08:04.128Z,8.82
2023-01-11T05:09:04.084Z,8.85
2023-01-11T05:10:04.087Z,8.79
2023-01-11T05:11:04.065Z,8.81
2023-01-11T05:12:04.046Z,8.82
2023-01-11T05:13:04.032Z,8.88
2023-01-11T05:14:04.038Z,8.81
2023-01-11T05:15:04.028Z,8.81
2023-01-11T05:16:04.071Z,8.81
2023-01-11T05:17:03.982Z,8.87
2023-01-11T05:18:03.961Z,8.91
2023-01-11T05:19:03.961Z,8.91
2023-01-11T05:20:03.962Z,8.94
2023-01-11T05:21:03.928Z,8.92
2023-01-11T05:22:03.940Z,8.91
2023-01-11T05:23:03.903Z,8.88
2023-01-11T05:24:03.891Z,8.88
2023-01-11T05:25:03.898Z,8.92
2023-01-11T05:26:03.867Z,8.92
2023-01-11T05:27:03.853Z,8.91
2023-01-11T05:28:03.843Z,8.91
2023-01-11T05:29:03.833Z,8.95
2023-01-11T05:30:03.856Z,8.89
2023-01-11T05:31:03.803Z,8.99
2023-01-11T05:32:03.862Z,9.02
2023-01-11T05:33:03.771Z,9.02
2023-01-11T05:34:03.757Z,9.02
2023-01-11T05:35:03.754Z,9.02
2023-01-11T05:36:03.729Z,9.00
2023-01-11T05:37:03.714Z,9.00
2023-01-11T05:38:03.705Z,9.11
2023-01-11T05:39:03.691Z,9.03
2023-01-11T05:40:03.715Z,9.11
2023-01-11T05:41:03.669Z,9.10
2023-01-11T05:42:03.648Z,9.08
2023-01-11T05:43:03.642Z,9.10
2023-01-11T05:44:03.640Z,9.18
2023-01-11T05:45:03.615Z,9.10
2023-01-11T05:46:03.671Z,9.13
2023-01-11T05:47:03.605Z,9.13
2023-01-11T05:48:03.571Z,9.14
2023-01-11T05:49:03.564Z,9.19
2023-01-11T05:50:03.553Z,9.14
2023-01-11T05:51:03.564Z,9.16
2023-01-11T05:52:03.522Z,9.16
2023-01-11T05:53:03.518Z,9.18
2023-01-11T05:54:03.536Z,9.22
2023-01-11T05:55:03.485Z,9.21
2023-01-11T05:56:03.485Z,9.23
2023-01-11T05:57:03.462Z,9.25
2023-01-11T05:58:03.451Z,9.23
2023-01-11T05:59:03.433Z,9.28
2023-01-11T06:00:03.432Z,9.26
2023-01-11T06:01:03.441Z,9.23
2023-01-11T06:02:03.510Z,9.26
2023-01-11T06:03:03.436Z,9.29
2023-01-11T06:04:03.365Z,9.22
2023-01-11T06:05:03.368Z,9.28
2023-01-11T06:06:03.348Z,9.25
2023-01-11T06:07:03.390Z,9.31
2023-01-11T06:08:03.319Z,9.34
2023-01-11T06:09:03.301Z,9.37
2023-01-11T06:10:03.291Z,9.40
2023-01-11T06:11:04.216Z,9.34
2023-01-11T06:12:03.267Z,9.37
2023-01-11T06:13:03.253Z,9.37
2023-01-11T06:14:03.237Z,9.37
2023-01-11T06:15:03.225Z,9.37
2023-01-11T06:16:03.223Z,9.36
2023-01-11T06:17:03.220Z,9.37
2023-01-11T06:18:03.240Z,9.40
2023-01-11T06:19:03.170Z,9.43
2023-01-11T06:20:03.166Z,9.44
2023-01-11T06:21:03.170Z,9.43
2023-01-11T06:22:03.153Z,9.43
2023-01-11T06:23:03.130Z,9.36
2023-01-11T06:24:03.102Z,9.37
2023-01-11T06:25:03.101Z,9.28
2023-01-11T06:26:03.119Z,9.29
2023-01-11T06:27:03.077Z,9.26
2023-01-11T06:28:03.054Z,9.23
2023-01-11T06:29:03.045Z,9.28
2023-01-11T06:30:03.030Z,9.22
2023-01-11T06:31:03.207Z,9.16
2023-01-11T06:32:02.997Z,9.22
2023-01-11T06:33:02.988Z,9.18
2023-01-11T06:34:02.998Z,9.19
2023-01-11T06:35:02.971Z,9.19
2023-01-11T06:36:02.977Z,9.18
2023-01-11T06:37:02.942Z,9.18
2023-01-11T06:38:02.925Z,9.19
2023-01-11T06:39:02.907Z,9.18
2023-01-11T06:40:02.898Z,9.14
2023-01-11T06:41:02.900Z,9.14
2023-01-11T06:42:02.872Z,9.18
2023-01-11T06:43:02.858Z,9.21
2023-01-11T06:44:02.844Z,9.19
2023-01-11T06:45:02.847Z,9.19
2023-01-11T06:46:02.936Z,9.22
2023-01-11T06:47:02.806Z,9.16
2023-01-11T06:48:02.794Z,9.19
2023-01-11T06:49:02.787Z,9.18
2023-01-11T06:50:02.781Z,9.22
2023-01-11T06:51:02.768Z,9.16
2023-01-11T06:52:02.741Z,9.23
2023-01-11T06:53:02.742Z,9.16
2023-01-11T06:54:02.709Z,9.14
2023-01-11T06:55:02.707Z,9.14
2023-01-11T06:56:02.700Z,9.18
2023-01-11T06:57:02.671Z,9.13
2023-01-11T06:58:02.662Z,9.14
2023-01-11T06:59:02.645Z,9.11
2023-01-11T07:00:02.629Z,9.14
2023-01-11T07:01:02.709Z,9.10
2023-01-11T07:02:02.607Z,9.14
2023-01-11T07:03:02.601Z,9.11
2023-01-11T07:04:02.621Z,9.13
2023-01-11T07:05:02.626Z,9.06
2023-01-11T07:06:02.644Z,9.02
2023-01-11T07:07:02.545Z,8.99
2023-01-11T07:08:02.535Z,8.97
2023-01-11T07:09:02.526Z,9.00
2023-01-11T07:10:02.510Z,8.97
2023-01-11T07:11:02.561Z,8.97
2023-01-11T07:12:02.500Z,8.95
2023-01-11T07:13:02.471Z,8.95
2023-01-11T07:14:02.457Z,8.99
2023-01-11T07:15:02.437Z,9.03
2023-01-11T07:16:02.512Z,9.00
2023-01-11T07:17:02.434Z,9.00
2023-01-11T07:18:02.413Z,9.00
2023-01-11T07:19:02.393Z,9.00
2023-01-11T07:20:02.373Z,9.04
2023-01-11T07:21:02.390Z,9.02
2023-01-11T07:22:02.387Z,9.02
2023-01-11T07:23:02.340Z,8.97
2023-01-11T07:24:02.321Z,9.02
2023-01-11T07:25:02.327Z,9.02
2023-01-11T07:26:02.385Z,9.06
2023-01-11T07:27:02.299Z,9.03
2023-01-11T07:28:02.285Z,9.04
2023-01-11T07:29:02.282Z,9.02
2023-01-11T07:30:02.294Z,9.08
2023-01-11T07:31:02.408Z,9.06
2023-01-11T07:32:02.261Z,9.02
2023-01-11T07:33:02.235Z,8.99
2023-01-11T07:34:02.192Z,9.03
2023-01-11T07:35:02.184Z,9.02
2023-01-11T07:36:02.167Z,8.99
2023-01-11T07:37:02.168Z,9.00
2023-01-11T07:38:02.175Z,9.03
2023-01-11T07:39:02.149Z,8.97
2023-01-11T07:40:02.146Z,9.02
2023-01-11T07:41:02.110Z,9.00
2023-01-11T07:42:02.116Z,8.99
2023-01-11T07:43:02.082Z,9.02
2023-01-11T07:44:02.076Z,9.03
2023-01-11T07:45:02.055Z,9.02
2023-01-11T07:46:02.137Z,9.04
2023-01-11T07:47:02.061Z,9.00
2023-01-11T07:48:02.011Z,9.06
2023-01-11T07:49:02.014Z,9.02
2023-01-11T07:50:01.988Z,9.03
2023-01-11T07:51:01.980Z,9.10
2023-01-11T07:52:01.990Z,9.08
2023-01-11T07:53:01.953Z,9.10
2023-01-11T07:54:01.970Z,9.10
2023-01-11T07:55:01.930Z,9.11
2023-01-11T07:56:01.915Z,9.14
2023-01-11T07:57:01.913Z,9.13
2023-01-11T07:58:01.887Z,9.13
2023-01-11T07:59:01.875Z,9.10
2023-01-11T08:00:01.861Z,9.11
2023-01-11T08:01:01.852Z,9.14
2023-01-11T08:02:01.860Z,9.13
2023-01-11T08:03:01.983Z,9.16
2023-01-11T08:04:01.821Z,9.18
2023-01-11T08:05:03.252Z,9.10
2023-01-11T08:06:01.789Z,9.14
2023-01-11T08:07:01.773Z,9.21
2023-01-11T08:08:01.792Z,9.13
2023-01-11T08:09:01.746Z,9.11
2023-01-11T08:10:01.793Z,9.18
2023-01-11T08:11:02.738Z,9.18
2023-01-11T08:12:01.725Z,9.14
2023-01-11T08:13:01.726Z,9.21
2023-01-11T08:14:01.717Z,9.14
2023-01-11T08:15:01.728Z,9.14
2023-01-11T08:16:01.735Z,9.19
2023-01-11T08:17:01.643Z,9.18
2023-01-11T08:18:01.645Z,9.19
2023-01-11T08:19:01.622Z,9.21
2023-01-11T08:20:01.619Z,9.18
2023-01-11T08:21:01.609Z,9.19
2023-01-11T08:22:01.584Z,9.22
2023-01-11T08:23:01.580Z,9.21
2023-01-11T08:24:01.561Z,9.26
2023-01-11T08:25:01.552Z,9.25
2023-01-11T08:26:01.555Z,9.28
2023-01-11T08:27:01.571Z,9.21
2023-01-11T08:28:01.760Z,9.25
2023-01-11T08:29:01.494Z,9.26
2023-01-11T08:30:01.497Z,9.23
2023-01-11T08:31:01.552Z,9.28
2023-01-11T08:32:01.477Z,9.28
2023-01-11T08:33:01.482Z,9.28
2023-01-11T08:34:01.430Z,9.31
2023-01-11T08:35:01.436Z,9.34
2023-01-11T08:36:01.398Z,9.34
2023-01-11T08:37:01.388Z,9.34
2023-01-11T08:38:01.384Z,9.40
2023-01-11T08:39:01.368Z,9.31
2023-01-11T08:40:01.368Z,9.29
2023-01-11T08:41:01.379Z,9.36
2023-01-11T08:42:01.347Z,9.36
2023-01-11T08:43:01.353Z,9.39
2023-01-11T08:44:01.298Z,9.40
2023-01-11T08:45:01.331Z,9.34
2023-01-11T08:46:01.361Z,9.36
2023-01-11T08:47:01.281Z,9.34
2023-01-11T08:48:01.266Z,9.39
2023-01-11T08:49:01.236Z,9.32
2023-01-11T08:50:01.252Z,9.37
2023-01-11T08:51:01.227Z,9.34
2023-01-11T08:52:01.205Z,9.36
2023-01-11T08:53:01.183Z,9.40
2023-01-11T08:54:01.174Z,9.39
2023-01-11T08:55:01.166Z,9.36
2023-01-11T08:56:01.168Z,9.37
2023-01-11T08:57:01.137Z,9.39
2023-01-11T08:58:01.155Z,9.44
2023-01-11T08:59:01.114Z,9.41
2023-01-11T09:00:01.094Z,9.40
2023-01-11T09:01:01.101Z,9.39
2023-01-11T09:02:01.169Z,9.43
2023-01-11T09:03:01.380Z,9.43
2023-01-11T09:04:02.383Z,9.44
2023-01-11T09:05:01.032Z,9.40
2023-01-11T09:06:01.039Z,9.40
2023-01-11T09:07:01.004Z,9.47
2023-01-11T09:08:01.014Z,9.47
2023-01-11T09:09:00.981Z,9.43
2023-01-11T09:10:00.967Z,9.44
2023-01-11T09:11:00.985Z,9.44
2023-01-11T09:12:01.001Z,9.46
2023-01-11T09:13:00.936Z,9.47
2023-01-11T09:14:00.949Z,9.46
2023-01-11T09:15:00.905Z,9.44
2023-01-11T09:16:00.926Z,9.47
2023-01-11T09:17:00.879Z,9.50
2023-01-11T09:18:00.878Z,9.47
2023-01-11T09:19:00.870Z,9.48
2023-01-11T09:20:00.842Z,9.48
2023-01-11T09:21:00.847Z,9.50
2023-01-11T09:22:00.819Z,9.48
2023-01-11T09:23:00.803Z,9.47
2023-01-11T09:24:00.793Z,9.48
2023-01-11T09:25:00.845Z,9.51
2023-01-11T09:26:00.789Z,9.48
2023-01-11T09:27:00.847Z,9.54
2023-01-11T09:28:00.742Z,9.50
2023-01-11T09:29:00.773Z,9.50
2023-01-11T09:30:00.738Z,9.50
2023-01-11T09:31:00.771Z,9.51
2023-01-11T09:32:00.701Z,9.50
2023-01-11T09:33:00.677Z,9.54
2023-01-11T09:34:00.664Z,9.51
2023-01-11T09:35:00.649Z,9.58
2023-01-11T09:36:00.653Z,9.54
2023-01-11T09:37:00.812Z,9.54
2023-01-11T09:38:00.621Z,9.56
2023-01-11T09:39:00.595Z,9.54
2023-01-11T09:40:00.585Z,9.56
2023-01-11T09:41:00.584Z,9.54
2023-01-11T09:42:00.563Z,9.56
2023-01-11T09:43:00.545Z,9.58
2023-01-11T09:44:00.534Z,9.59
2023-01-11T09:45:00.541Z,9.59
2023-01-11T09:46:00.552Z,9.59
2023-01-11T09:47:00.505Z,9.58
2023-01-11T09:48:00.484Z,9.61
2023-01-11T09:49:00.532Z,9.59
2023-01-11T09:50:00.465Z,9.65
2023-01-11T09:51:00.561Z,9.62
2023-01-11T09:52:00.434Z,9.68
2023-01-11T09:53:00.430Z,9.65
2023-01-11T09:54:00.406Z,9.66
2023-01-11T09:55:00.408Z,9.62
2023-01-11T09:56:00.416Z,9.64
2023-01-11T09:57:00.373Z,9.64
2023-01-11T09:58:00.357Z,9.66
2023-01-11T09:59:00.338Z,9.64
2023-01-11T10:00:00.339Z,9.69
2023-01-11T10:01:01.454Z,9.69
2023-01-11T10:02:00.327Z,9.69
2023-01-11T10:03:00.300Z,9.66
2023-01-11T10:04:00.278Z,9.69
2023-01-11T10:05:00.338Z,9.72
2023-01-11T10:06:00.297Z,9.69
2023-01-11T10:07:00.245Z,9.72
2023-01-11T10:18:25.374Z,9.74
2023-01-11T10:18:26.392Z,9.74
2023-01-11T10:18:28.736Z,9.69
2023-01-11T10:18:39.684Z,9.76
2023-01-11T10:19:31.655Z,9.79
2023-01-11T10:20:01.146Z,9.77
2023-01-11T10:21:00.077Z,9.79
2023-01-11T10:22:00.052Z,9.77
2023-01-11T10:23:00.050Z,9.83
2023-01-11T10:24:00.044Z,9.79
2023-01-11T10:25:00.027Z,9.80
2023-01-11T10:26:00.003Z,9.83
2023-01-11T10:27:00.089Z,9.79
2023-01-11T10:27:59.988Z,9.82
2023-01-11T10:28:59.964Z,9.79
2023-01-11T10:29:59.947Z,9.83
2023-01-11T10:30:59.940Z,9.79
2023-01-11T10:31:59.949Z,9.77
2023-01-11T10:32:59.913Z,9.79
2023-01-11T10:33:59.936Z,9.80
2023-01-11T10:35:00.041Z,9.84
2023-01-11T10:35:59.881Z,9.80
2023-01-11T10:36:59.869Z,9.79
2023-01-11T10:37:59.862Z,9.83
2023-01-11T10:38:59.831Z,9.84
2023-01-11T10:39:59.816Z,9.82
2023-01-11T10:40:59.810Z,9.82
2023-01-11T10:41:59.828Z,9.84
2023-01-11T10:42:59.829Z,9.86
2023-01-11T10:43:59.778Z,9.84
2023-01-11T10:44:59.772Z,9.87
2023-01-11T10:45:59.787Z,9.89
2023-01-11T10:46:59.758Z,9.83
2023-01-11T10:47:59.719Z,9.87
2023-01-11T10:48:59.709Z,9.89
2023-01-11T10:49:59.716Z,9.84
2023-01-11T10:50:59.690Z,9.87
2023-01-11T10:51:59.686Z,9.91
2023-01-11T10:52:59.662Z,9.87
2023-01-11T10:53:59.649Z,9.87
2023-01-11T10:54:59.631Z,9.89
2023-01-11T10:55:59.638Z,9.91
2023-01-11T10:57:02.350Z,9.89
2023-01-11T10:58:03.292Z,9.87
2023-01-11T10:58:59.578Z,9.92
2023-01-11T10:59:59.572Z,9.92
2023-01-11T11:00:59.572Z,9.95
2023-01-11T11:01:59.650Z,9.94
2023-01-11T11:02:59.535Z,9.97
2023-01-11T11:03:59.516Z,9.97
2023-01-11T11:04:59.500Z,10.01
2023-01-11T11:05:59.516Z,10.01
2023-01-11T11:06:59.495Z,9.98
2023-01-11T11:07:59.464Z,10.02
2023-01-11T11:08:59.462Z,9.99
2023-01-11T11:09:59.452Z,10.02
2023-01-11T11:10:59.432Z,10.02
2023-01-11T11:11:59.427Z,10.04
2023-01-11T11:12:59.409Z,10.01
2023-01-11T11:13:59.387Z,10.07
2023-01-11T11:14:59.377Z,10.04
2023-01-11T11:15:59.394Z,10.01
2023-01-11T11:16:59.378Z,10.01
2023-01-11T11:17:59.343Z,10.07
2023-01-11T11:18:59.329Z,10.09
2023-01-11T11:19:59.319Z,10.07
2023-01-11T11:20:59.300Z,10.10
2023-01-11T11:21:59.326Z,10.09
2023-01-11T11:22:59.273Z,10.05
2023-01-11T11:23:59.261Z,10.10
2023-01-11T11:24:59.249Z,10.12
2023-01-11T11:25:59.232Z,10.13
2023-01-11T11:26:59.289Z,10.10
2023-01-11T11:27:59.205Z,10.09
2023-01-11T11:28:59.193Z,10.09
2023-01-11T11:29:59.183Z,10.17
2023-01-11T11:30:59.174Z,10.17
2023-01-11T11:31:59.204Z,10.13
2023-01-11T11:32:59.138Z,10.23
2023-01-11T11:33:59.145Z,10.17
2023-01-11T11:34:59.122Z,10.19
2023-01-11T11:35:59.107Z,10.22
2023-01-11T11:36:59.110Z,10.20
2023-01-11T11:37:59.121Z,10.25
2023-01-11T11:38:59.084Z,10.20
2023-01-11T11:39:59.073Z,10.25
2023-01-11T11:40:59.052Z,10.33
2023-01-11T11:41:59.043Z,10.33
2023-01-11T11:42:59.029Z,10.40
2023-01-11T11:43:59.001Z,10.40
2023-01-11T11:44:58.990Z,10.40
2023-01-11T11:45:59.009Z,10.46
2023-01-11T11:46:58.979Z,10.41
2023-01-11T11:47:58.965Z,10.48
2023-01-11T11:48:58.934Z,10.46
2023-01-11T11:49:58.924Z,10.53
2023-01-11T11:50:58.910Z,10.49
2023-01-11T11:51:58.910Z,10.57
2023-01-11T11:52:58.905Z,10.54
2023-01-11T11:53:58.890Z,10.53
2023-01-11T11:54:58.856Z,10.56
2023-01-11T11:55:58.844Z,10.60
2023-01-11T11:56:58.839Z,10.57
2023-01-11T11:57:58.832Z,10.57
2023-01-11T11:58:58.806Z,10.61
2023-01-11T11:59:58.788Z,10.67
2023-01-11T12:00:58.784Z,10.61
2023-01-11T12:01:58.839Z,10.63
2023-01-11T12:02:58.782Z,10.60
2023-01-11T12:03:58.736Z,10.63
2023-01-11T12:04:58.753Z,10.64
2023-01-11T12:05:58.721Z,10.57
2023-01-11T12:06:58.704Z,10.54
2023-01-11T12:07:58.702Z,10.56
2023-01-11T12:08:58.674Z,10.59
2023-01-11T12:09:58.679Z,10.57
2023-01-11T12:10:58.659Z,10.60
2023-01-11T12:11:58.636Z,10.60
2023-01-11T12:12:58.628Z,10.63
2023-01-11T12:13:58.607Z,10.61
2023-01-11T12:14:58.596Z,10.67
2023-01-11T12:15:58.577Z,10.68
2023-01-11T12:16:58.701Z,10.72
2023-01-11T12:17:58.570Z,10.75
2023-01-11T12:18:58.542Z,10.76
2023-01-11T12:19:58.531Z,10.82
2023-01-11T12:20:58.513Z,10.86
2023-01-11T12:21:58.503Z,10.93
2023-01-11T12:22:58.500Z,10.97
2023-01-11T12:23:58.471Z,11.02
2023-01-11T12:24:58.466Z,11.08
2023-01-11T12:25:58.480Z,11.04
2023-01-11T12:26:58.519Z,10.94
2023-01-11T12:27:58.436Z,10.97
2023-01-11T12:28:58.408Z,11.00
2023-01-11T12:29:58.401Z,10.97
2023-01-11T12:30:58.427Z,10.97
2023-01-11T12:31:58.367Z,10.99
2023-01-11T12:32:58.363Z,10.92
2023-01-11T12:33:58.359Z,10.96
2023-01-11T12:34:58.326Z,10.92
2023-01-11T12:35:58.310Z,10.90
2023-01-11T12:36:58.297Z,10.82
2023-01-11T12:37:58.317Z,10.82
2023-01-11T12:38:58.267Z,10.79
2023-01-11T12:39:58.259Z,10.75
2023-01-11T12:40:58.240Z,10.76
2023-01-11T12:41:58.250Z,10.82
2023-01-11T12:42:58.234Z,10.81
2023-01-11T12:43:58.201Z,10.76
2023-01-11T12:44:58.200Z,10.81
2023-01-11T12:45:58.230Z,10.76
2023-01-11T12:46:58.173Z,10.82
2023-01-11T12:47:58.164Z,10.84
2023-01-11T12:48:58.156Z,10.79
2023-01-11T12:49:58.132Z,10.79
2023-01-11T12:50:58.116Z,10.76
2023-01-11T12:51:58.106Z,10.82
2023-01-11T12:52:58.086Z,10.81
2023-01-11T12:53:58.087Z,10.86
2023-01-11T12:54:58.056Z,10.86
2023-01-11T12:55:58.043Z,10.79
2023-01-11T12:56:58.033Z,10.82
2023-01-11T12:57:58.046Z,10.81
2023-01-11T12:58:58.015Z,10.84
2023-01-11T12:59:57.989Z,10.79
2023-01-11T13:00:58.020Z,10.79
2023-01-11T13:01:57.966Z,10.81
2023-01-11T13:02:58.038Z,10.82
2023-01-11T13:03:57.953Z,10.81
2023-01-11T13:04:57.920Z,10.79
2023-01-11T13:05:57.919Z,10.86
2023-01-11T13:06:57.897Z,10.86
2023-01-11T13:07:57.893Z,10.82
2023-01-11T13:08:57.884Z,10.84
2023-01-11T13:09:57.854Z,10.86
2023-01-11T13:10:57.844Z,10.86
2023-01-11T13:11:57.839Z,10.81
2023-01-11T13:12:57.813Z,10.81
2023-01-11T13:13:57.845Z,10.84
2023-01-11T13:14:57.818Z,10.79
2023-01-11T13:15:57.778Z,10.81
2023-01-11T13:16:57.832Z,10.79
2023-01-11T13:17:57.748Z,10.79
2023-01-11T13:18:57.747Z,10.81
2023-01-11T13:19:57.729Z,10.81